createdAt,value
2024-01-15T00:01:33.268Z,18.55
2024-01-15T00:04:01.423Z,19.00
2024-01-15T00:06:29.935Z,21.35
2024-01-15T00:08:59.344Z,19.10
2024-01-15T00:11:26.565Z,17.15
2024-01-15T00:13:53.898Z,18.45
2024-01-15T00:16:21.008Z,17.27
2024-01-15T00:18:48.643Z,18.85
2024-01-15T00:21:16.028Z,18.23
2024-01-15T00:23:46.234Z,17.40
2024-01-15T00:26:14.028Z,16.63
2024-01-15T00:28:41.252Z,15.88
2024-01-15T00:31:08.624Z,16.75
2024-01-15T00:33:36.112Z,15.65
2024-01-15T00:36:04.436Z,16.55
2024-01-15T00:38:31.981Z,16.42
2024-01-15T00:40:59.077Z,16.15
2024-01-15T00:43:26.309Z,16.10
2024-01-15T00:45:53.499Z,16.75
2024-01-15T00:48:20.880Z,16.02
2024-01-15T00:50:48.144Z,18.58
2024-01-15T00:53:15.426Z,17.98
2024-01-15T00:55:42.985Z,17.55
2024-01-15T00:58:10.118Z,16.92
2024-01-15T01:00:37.397Z,16.65
2024-01-15T01:03:04.884Z,17.02
2024-01-15T01:05:32.645Z,16.10
2024-01-15T01:07:59.948Z,16.23
2024-01-15T01:10:27.071Z,17.08
2024-01-15T01:12:54.341Z,17.13
2024-01-15T01:15:22.659Z,16.30
2024-01-15T01:17:50.120Z,16.67
2024-01-15T01:20:19.287Z,15.50
2024-01-15T01:22:46.974Z,14.60
2024-01-15T01:25:14.252Z,15.45
2024-01-15T01:27:41.654Z,14.43
2024-01-15T01:30:09.719Z,15.75
2024-01-15T01:32:37.247Z,16.27
2024-01-15T01:35:04.876Z,15.57
2024-01-15T01:37:32.967Z,14.73
2024-01-15T01:40:00.183Z,14.98
2024-01-15T01:42:27.510Z,14.85
2024-01-15T01:44:54.796Z,15.35
2024-01-15T01:47:22.117Z,14.80
2024-01-15T01:49:49.293Z,15.55
2024-01-15T01:52:16.653Z,13.68
2024-01-15T01:54:43.999Z,14.77
2024-01-15T01:57:11.331Z,16.15
2024-01-15T01:59:39.877Z,15.05
2024-01-15T02:02:07.279Z,16.20
2024-01-15T02:04:34.878Z,13.57
2024-01-15T02:07:02.412Z,15.00
2024-01-15T02:09:29.827Z,15.07
2024-01-15T02:11:57.184Z,15.70
2024-01-15T02:14:24.534Z,15.35
2024-01-15T02:16:51.781Z,15.68
2024-01-15T02:19:19.274Z,16.80
2024-01-15T02:21:46.837Z,17.75
2024-01-15T02:24:14.245Z,14.82
2024-01-15T02:26:41.574Z,16.40
2024-01-15T02:29:09.952Z,17.08
2024-01-15T02:31:40.451Z,17.95
2024-01-15T02:34:07.995Z,18.15
2024-01-15T02:36:35.261Z,18.13
2024-01-15T02:39:02.528Z,16.40
2024-01-15T02:41:29.888Z,16.45
2024-01-15T02:43:57.147Z,17.48
2024-01-15T02:46:24.229Z,17.02
2024-01-15T02:48:51.663Z,18.02
2024-01-15T02:51:19.039Z,18.67
2024-01-15T02:53:46.277Z,17.45
2024-01-15T02:56:13.353Z,18.30
2024-01-15T02:58:40.535Z,18.83
2024-01-15T03:01:07.744Z,18.33
2024-01-15T03:03:35.301Z,17.42
2024-01-15T03:06:03.344Z,15.18
2024-01-15T03:08:30.675Z,16.77
2024-01-15T03:10:57.855Z,15.95
2024-01-15T03:13:25.560Z,16.52
2024-01-15T03:15:52.704Z,15.88
2024-01-15T03:18:20.123Z,16.90
2024-01-15T03:20:47.286Z,16.30
2024-01-15T03:23:14.578Z,14.98
2024-01-15T03:25:41.784Z,14.65
2024-01-15T03:28:09.018Z,16.17
2024-01-15T03:30:36.436Z,16.42
2024-01-15T03:33:03.880Z,17.10
2024-01-15T03:35:32.154Z,18.45
2024-01-15T03:37:59.437Z,18.23
2024-01-15T03:40:26.670Z,16.75
2024-01-15T03:42:55.288Z,17.52
2024-01-15T03:45:22.502Z,17.05
2024-01-15T03:47:49.836Z,18.35
2024-01-15T03:50:17.149Z,17.63
2024-01-15T03:52:44.340Z,17.65
2024-01-15T03:55:11.418Z,17.40
2024-01-15T03:57:38.661Z,17.98
2024-01-15T04:00:06.544Z,17.50
2024-01-15T04:02:34.171Z,16.55
2024-01-15T04:05:01.362Z,13.88
2024-01-15T04:07:28.611Z,17.50
2024-01-15T04:09:55.883Z,14.18
2024-01-15T04:12:23.024Z,18.45
2024-01-15T04:14:50.485Z,18.15
2024-01-15T04:17:18.957Z,15.60
2024-01-15T04:19:46.474Z,18.63
2024-01-15T04:22:13.761Z,17.30
2024-01-15T04:24:41.060Z,17.25
2024-01-15T04:27:08.601Z,17.50
2024-01-15T04:29:38.406Z,13.77
2024-01-15T04:32:07.517Z,14.20
2024-01-15T04:34:34.805Z,17.25
2024-01-15T04:37:02.166Z,16.25
2024-01-15T04:39:30.001Z,17.08
2024-01-15T04:41:57.308Z,17.50
2024-01-15T04:44:24.587Z,15.77
2024-01-15T04:46:52.008Z,17.45
2024-01-15T04:49:19.292Z,13.88
2024-01-15T04:51:46.847Z,15.27
2024-01-15T04:54:13.995Z,17.77
2024-01-15T04:56:41.294Z,16.20
2024-01-15T04:59:08.471Z,15.02
2024-01-15T05:01:35.718Z,15.90
2024-01-15T05:04:03.299Z,12.45
2024-01-15T05:06:31.099Z,17.55
2024-01-15T05:08:58.312Z,15.90
2024-01-15T05:11:25.579Z,17.13
2024-01-15T16:27:00.603Z,13.68
2024-01-15T16:29:28.637Z,13.02
2024-01-15T16:31:55.955Z,12.00
2024-01-15T16:34:23.298Z,13.02
2024-01-15T16:36:50.542Z,12.75
2024-01-15T16:39:17.885Z,13.02
2024-01-15T16:41:47.460Z,14.85
2024-01-15T16:44:14.849Z,14.45
2024-01-15T16:46:42.056Z,12.45
2024-01-15T16:49:11.469Z,12.45
2024-01-15T16:51:38.821Z,12.80
2024-01-15T16:54:06.122Z,13.95
2024-01-15T16:56:33.381Z,13.75
2024-01-15T16:59:00.739Z,13.38
2024-01-15T17:01:28.307Z,13.20
2024-01-15T17:03:55.637Z,14.35
2024-01-15T17:06:25.287Z,13.43
2024-01-15T17:08:52.788Z,14.13
2024-01-15T17:11:20.071Z,12.50
2024-01-15T17:13:47.523Z,12.48
2024-01-15T17:16:14.745Z,13.45
2024-01-15T17:18:42.154Z,13.65
2024-01-15T17:21:09.405Z,13.20
2024-01-15T17:23:36.889Z,12.98
2024-01-15T17:26:04.610Z,12.20
2024-01-15T17:28:34.378Z,10.93
2024-01-15T17:31:01.742Z,11.38
2024-01-15T17:33:29.151Z,11.90
2024-01-15T17:36:00.551Z,11.43
2024-01-15T17:38:29.127Z,12.30
2024-01-15T17:40:56.475Z,10.32
2024-01-15T17:43:23.873Z,10.68
2024-01-15T17:45:51.102Z,11.15
2024-01-15T17:48:18.619Z,10.15
2024-01-15T17:50:46.713Z,11.60
2024-01-15T17:53:14.836Z,10.68
2024-01-15T17:55:42.180Z,12.40
2024-01-15T17:58:09.512Z,12.52
2024-01-15T18:00:36.788Z,11.35
2024-01-15T18:03:04.388Z,13.82
2024-01-15T18:05:31.736Z,12.52
2024-01-15T18:07:59.225Z,12.18
2024-01-15T18:10:27.998Z,9.05
2024-01-15T18:12:55.210Z,10.82
2024-01-15T18:15:22.830Z,11.20
2024-01-15T18:17:50.333Z,11.55
2024-01-15T18:20:19.013Z,11.63
2024-01-15T18:22:51.083Z,11.30
2024-01-15T18:25:20.906Z,10.88
2024-01-15T18:27:49.348Z,11.50
2024-01-15T18:30:16.860Z,12.20
2024-01-15T18:32:44.386Z,12.35
2024-01-15T18:35:16.785Z,11.45
2024-01-15T18:37:47.358Z,10.63
2024-01-15T18:40:14.935Z,10.98
2024-01-15T18:42:42.553Z,9.25
2024-01-15T18:45:10.211Z,8.82
2024-01-15T18:47:37.976Z,10.55
2024-01-15T18:50:05.954Z,9.13
2024-01-15T18:52:34.141Z,10.15
2024-01-15T18:55:01.391Z,10.45
2024-01-15T18:57:28.833Z,10.02
2024-01-15T18:59:56.112Z,11.10
2024-01-15T19:02:23.511Z,11.90
2024-01-15T19:04:50.785Z,12.00
2024-01-15T19:07:18.121Z,11.50
2024-01-15T19:09:45.413Z,12.45
2024-01-15T19:12:13.275Z,12.30
2024-01-15T19:14:40.574Z,11.85
2024-01-15T19:17:07.988Z,9.13
2024-01-15T19:19:38.426Z,11.02
2024-01-15T19:22:05.947Z,10.52
2024-01-15T19:24:33.848Z,11.30
2024-01-15T19:27:01.396Z,12.30
2024-01-15T19:29:29.245Z,11.15
2024-01-15T19:31:57.374Z,9.95
2024-01-15T19:34:24.900Z,10.55
2024-01-15T19:36:53.450Z,10.27
2024-01-15T19:39:22.756Z,11.95
2024-01-15T19:41:50.518Z,12.20
2024-01-15T19:44:17.932Z,11.85
2024-01-15T19:46:45.784Z,11.18
2024-01-15T19:49:13.270Z,10.18
2024-01-15T19:51:40.797Z,10.57
2024-01-15T19:54:08.402Z,11.75
2024-01-15T19:56:37.035Z,8.95
2024-01-15T19:59:04.826Z,10.63
2024-01-15T20:01:35.396Z,10.60
2024-01-15T20:04:05.117Z,12.73
2024-01-15T20:06:32.679Z,11.50
2024-01-15T20:09:00.063Z,11.10
2024-01-15T20:11:27.561Z,7.80
2024-01-15T20:13:55.032Z,10.60
2024-01-15T20:16:22.447Z,9.98
2024-01-15T20:18:49.903Z,9.07
2024-01-15T20:21:17.237Z,10.23
2024-01-15T20:23:54.357Z,8.50
2024-01-15T20:26:25.980Z,9.02
2024-01-15T20:28:53.973Z,9.18
2024-01-15T20:31:21.352Z,10.50
2024-01-15T20:33:48.712Z,9.45
2024-01-15T20:36:16.059Z,9.02
2024-01-15T20:38:43.376Z,9.13
2024-01-15T20:41:10.847Z,8.73
2024-01-15T20:43:38.115Z,6.32
2024-01-15T20:46:05.361Z,6.72
2024-01-15T20:48:32.760Z,9.63
2024-01-15T20:51:00.149Z,5.88
2024-01-15T20:53:27.724Z,7.50
2024-01-15T20:55:55.122Z,8.90
2024-01-15T20:58:23.981Z,8.80
2024-01-15T21:00:51.784Z,7.10
2024-01-15T21:03:19.642Z,8.07
2024-01-15T21:05:47.598Z,7.35
2024-01-15T21:08:16.277Z,5.40
2024-01-15T21:10:43.984Z,8.27
2024-01-15T21:13:11.352Z,8.18
2024-01-15T21:15:39.985Z,9.68
2024-01-15T21:18:07.709Z,9.02
2024-01-15T21:20:35.255Z,5.43
2024-01-15T21:23:03.341Z,8.35
2024-01-15T21:25:31.759Z,8.73
2024-01-15T21:27:59.049Z,8.75
2024-01-15T21:30:26.476Z,8.18
2024-01-15T21:32:53.877Z,6.70
2024-01-15T21:35:21.447Z,6.72
2024-01-15T21:37:48.676Z,7.38
2024-01-15T21:40:17.062Z,7.38
2024-01-15T21:42:45.219Z,8.00
2024-01-15T21:45:12.500Z,8.32
2024-01-15T21:47:41.069Z,7.63
2024-01-15T21:50:10.229Z,7.05
2024-01-15T21:52:38.055Z,8.63
2024-01-15T21:55:07.331Z,8.60
2024-01-15T21:57:34.730Z,7.15
2024-01-15T22:00:05.633Z,7.05
2024-01-15T22:02:41.763Z,7.85
2024-01-15T22:05:10.320Z,6.15
2024-01-15T22:07:39.248Z,7.25
2024-01-15T22:10:08.613Z,8.05
2024-01-15T22:12:36.166Z,6.40
2024-01-15T22:15:03.795Z,7.57
2024-01-15T22:17:31.290Z,6.30
2024-01-15T22:19:58.660Z,6.45
2024-01-15T22:22:25.831Z,7.53
2024-01-15T22:24:53.150Z,7.88
2024-01-15T22:27:20.372Z,8.10
2024-01-15T22:29:51.851Z,8.60
2024-01-15T22:32:19.461Z,8.32
2024-01-15T22:34:46.825Z,8.13
2024-01-15T22:37:15.151Z,9.80
2024-01-15T22:39:42.297Z,7.05
2024-01-15T22:42:10.168Z,7.50
2024-01-15T22:44:37.651Z,8.45
2024-01-15T22:47:05.266Z,9.25
2024-01-15T22:49:32.501Z,8.20
2024-01-15T22:51:59.911Z,7.97
2024-01-15T22:54:27.156Z,8.85
2024-01-15T22:56:54.344Z,6.40
2024-01-15T22:59:23.389Z,8.13
2024-01-15T23:01:50.965Z,9.65
2024-01-15T23:04:18.826Z,8.52
2024-01-15T23:06:46.412Z,8.73
2024-01-15T23:09:14.734Z,8.77
2024-01-15T23:11:42.762Z,7.47
2024-01-15T23:14:10.755Z,8.18
2024-01-15T23:16:39.691Z,8.15
2024-01-15T23:19:08.171Z,6.63
2024-01-15T23:21:35.538Z,7.90
2024-01-15T23:24:02.890Z,8.30
2024-01-15T23:26:30.272Z,6.28
2024-01-15T23:28:57.595Z,8.10
2024-01-15T23:31:25.199Z,7.75
2024-01-15T23:33:52.804Z,7.55
2024-01-15T23:36:20.078Z,8.00
2024-01-15T23:38:47.366Z,8.30
2024-01-15T23:41:23.645Z,7.72
2024-01-15T23:43:51.006Z,8.77
2024-01-15T23:46:19.910Z,8.27
2024-01-15T23:48:48.067Z,9.88
2024-01-15T23:51:15.544Z,9.25
2024-01-15T23:53:42.732Z,13.63
2024-01-15T23:56:10.193Z,14.32
2024-01-15T23:58:37.421Z,14.32
